createdAt,value
2017-09-12T00:00:04.709Z,23.40
2017-09-12T00:02:33.853Z,23.40
2017-09-12T00:05:02.743Z,23.40
2017-09-12T00:07:32.451Z,23.40
2017-09-12T00:10:01.241Z,23.30
2017-09-12T00:12:31.159Z,23.30
2017-09-12T00:15:00.046Z,23.30
2017-09-12T00:17:29.145Z,23.30
2017-09-12T00:19:57.984Z,23.20
2017-09-12T00:22:26.925Z,23.20
2017-09-12T00:24:56.324Z,23.10
2017-09-12T00:27:26.728Z,23.10
2017-09-12T00:29:55.712Z,23.00
2017-09-12T00:32:24.440Z,23.10
2017-09-12T00:34:54.657Z,23.10
2017-09-12T00:37:23.549Z,23.00
2017-09-12T00:39:53.670Z,23.00
2017-09-12T00:42:24.202Z,23.00
2017-09-12T00:44:53.114Z,22.90
2017-09-12T00:47:21.979Z,23.00
2017-09-12T00:49:50.931Z,22.90
2017-09-12T00:52:19.965Z,22.90
2017-09-12T00:54:48.856Z,22.90
2017-09-12T00:57:19.038Z,22.90
2017-09-12T00:59:48.177Z,22.90
2017-09-12T01:02:17.175Z,23.00
2017-09-12T01:04:46.061Z,22.90
2017-09-12T01:07:14.957Z,22.90
2017-09-12T01:09:44.660Z,22.80
2017-09-12T01:12:14.068Z,22.80
2017-09-12T01:14:43.906Z,22.70
2017-09-12T01:17:13.688Z,22.60
2017-09-12T01:19:43.400Z,22.60
2017-09-12T01:22:12.495Z,22.50
2017-09-12T01:24:41.564Z,22.50
2017-09-12T01:27:11.476Z,22.60
2017-09-12T01:29:40.809Z,22.50
2017-09-12T01:32:09.904Z,22.40
2017-09-12T01:34:38.901Z,22.30
2017-09-12T01:37:08.610Z,22.30
2017-09-12T01:39:37.911Z,22.30
2017-09-12T01:42:07.993Z,22.30
2017-09-12T01:44:37.096Z,22.30
2017-09-12T01:47:07.243Z,22.30
2017-09-12T01:49:36.133Z,22.30
2017-09-12T01:52:05.024Z,22.30
2017-09-12T01:54:34.240Z,22.30
2017-09-12T01:57:04.770Z,22.30
2017-09-12T01:59:33.850Z,22.30
2017-09-12T02:02:02.913Z,22.30
2017-09-12T02:04:31.742Z,22.30
2017-09-12T02:07:00.631Z,22.20
2017-09-12T02:09:29.721Z,22.30
2017-09-12T02:11:58.509Z,22.20
2017-09-12T02:14:27.502Z,22.20
2017-09-12T02:16:57.417Z,22.10
2017-09-12T02:19:26.315Z,22.10
2017-09-12T02:21:56.026Z,22.20
2017-09-12T02:24:25.117Z,22.20
2017-09-12T02:26:54.113Z,22.30
2017-09-12T02:29:23.440Z,22.30
2017-09-12T02:31:52.505Z,22.20
2017-09-12T02:34:21.521Z,22.20
2017-09-12T02:36:50.394Z,22.20
2017-09-12T02:39:20.103Z,21.90
2017-09-12T02:41:49.815Z,21.90
2017-09-12T02:44:18.704Z,21.80
2017-09-12T02:46:47.898Z,21.90
2017-09-12T02:49:16.687Z,21.80
2017-09-12T02:51:45.577Z,21.90
2017-09-12T02:54:15.288Z,22.00
2017-09-12T02:56:44.384Z,22.00
2017-09-12T02:59:13.482Z,22.00
2017-09-12T03:01:43.327Z,21.80
2017-09-12T03:04:12.311Z,21.70
2017-09-12T03:06:41.994Z,21.80
2017-09-12T03:09:11.297Z,21.80
2017-09-12T03:11:40.703Z,21.80
2017-09-12T03:14:09.691Z,21.80
2017-09-12T03:16:39.201Z,21.80
2017-09-12T03:19:08.236Z,21.80
2017-09-12T03:21:36.980Z,21.60
2017-09-12T03:24:05.870Z,21.70
2017-09-12T03:26:34.776Z,21.70
2017-09-12T03:29:03.560Z,21.70
2017-09-12T03:31:33.233Z,21.60
2017-09-12T03:34:02.223Z,21.60
2017-09-12T03:36:31.263Z,21.60
2017-09-12T03:39:00.448Z,21.60
2017-09-12T03:41:29.541Z,21.70
2017-09-12T03:43:58.450Z,21.70
2017-09-12T03:46:27.534Z,21.70
2017-09-12T03:48:56.619Z,21.60
2017-09-12T03:51:25.515Z,21.60
2017-09-12T03:53:54.409Z,21.50
2017-09-12T03:56:23.404Z,21.50
2017-09-12T03:58:52.500Z,21.50
2017-09-12T04:01:21.389Z,21.60
2017-09-12T04:03:50.585Z,21.60
2017-09-12T04:06:19.481Z,21.70
2017-09-12T04:08:48.577Z,21.70
2017-09-12T04:11:18.964Z,21.70
2017-09-12T04:13:48.027Z,21.60
2017-09-12T04:16:18.010Z,21.60
2017-09-12T04:18:48.118Z,21.60
2017-09-12T04:21:17.186Z,21.60
2017-09-12T04:23:47.359Z,21.60
2017-09-12T04:26:17.475Z,21.50
2017-09-12T04:28:46.742Z,21.50
2017-09-12T04:31:16.710Z,21.50
2017-09-12T04:33:45.989Z,21.60
2017-09-12T04:36:15.281Z,21.70
2017-09-12T04:38:44.300Z,21.60
2017-09-12T04:41:13.379Z,21.70
2017-09-12T04:43:43.289Z,21.70
2017-09-12T04:46:12.285Z,21.70
2017-09-12T04:48:42.809Z,21.60
2017-09-12T04:51:12.499Z,21.60
2017-09-12T04:53:41.592Z,21.60
2017-09-12T04:56:10.507Z,21.50
2017-09-12T04:58:39.606Z,21.50
2017-09-12T05:01:09.226Z,21.50
2017-09-12T05:03:39.163Z,21.50
2017-09-12T05:06:08.985Z,21.50
2017-09-12T05:08:40.166Z,21.30
2017-09-12T05:11:11.428Z,21.30
2017-09-12T05:13:41.325Z,21.20
2017-09-12T05:16:10.545Z,21.20
2017-09-12T05:18:40.477Z,21.20
2017-09-12T05:21:10.099Z,21.10
2017-09-12T05:23:41.008Z,21.10
2017-09-12T05:26:11.216Z,21.10
2017-09-12T05:28:41.774Z,21.00
2017-09-12T05:31:12.625Z,21.10
2017-09-12T05:33:41.921Z,21.10
2017-09-12T05:36:12.045Z,21.20
2017-09-12T05:38:44.205Z,21.20
2017-09-12T05:41:13.644Z,21.30
2017-09-12T05:43:43.809Z,21.30
2017-09-12T05:46:12.803Z,21.40
2017-09-12T05:48:41.698Z,21.40
2017-09-12T05:51:11.760Z,21.40
2017-09-12T05:53:41.087Z,21.50
2017-09-12T05:56:10.634Z,21.50
2017-09-12T05:58:39.712Z,21.50
2017-09-12T06:01:09.946Z,21.50
2017-09-12T06:03:38.829Z,21.40
2017-09-12T06:06:07.925Z,21.20
2017-09-12T06:08:37.196Z,21.20
2017-09-12T06:11:06.117Z,21.30
2017-09-12T06:13:36.035Z,21.20
2017-09-12T06:16:05.229Z,21.20
2017-09-12T06:18:34.233Z,21.10
2017-09-12T06:21:03.318Z,20.90
2017-09-12T06:23:33.335Z,20.80
2017-09-12T06:26:02.486Z,20.80
2017-09-12T06:28:31.424Z,20.70
2017-09-12T06:31:00.417Z,20.60
2017-09-12T06:33:30.324Z,20.50
2017-09-12T06:36:04.860Z,20.40
2017-09-12T06:38:41.421Z,20.40
2017-09-12T06:41:13.412Z,20.30
2017-09-12T06:43:43.961Z,20.30
2017-09-12T06:46:13.740Z,20.20
2017-09-12T06:48:43.901Z,20.30
2017-09-12T06:51:13.852Z,20.30
2017-09-12T06:53:43.278Z,20.50
2017-09-12T06:56:12.504Z,20.40
2017-09-12T06:58:42.904Z,20.50
2017-09-12T07:01:12.094Z,20.50
2017-09-12T07:03:40.988Z,20.60
2017-09-12T07:06:10.368Z,20.70
2017-09-12T07:08:39.284Z,20.70
2017-09-12T07:11:08.991Z,20.70
2017-09-12T07:13:38.288Z,20.80
2017-09-12T07:16:07.101Z,20.90
2017-09-12T07:18:36.385Z,20.90
2017-09-12T07:21:05.564Z,21.00
2017-09-12T07:23:34.448Z,21.00
2017-09-12T07:26:03.471Z,21.00
2017-09-12T07:28:32.770Z,21.10
2017-09-12T07:31:01.675Z,21.20
2017-09-12T07:33:31.602Z,21.10
2017-09-12T07:36:01.183Z,21.10
2017-09-12T07:38:30.276Z,21.20
2017-09-12T07:40:59.164Z,21.30
2017-09-12T07:43:28.792Z,21.30
2017-09-12T07:45:58.184Z,21.30
2017-09-12T07:48:27.086Z,21.30
2017-09-12T07:50:56.596Z,21.30
2017-09-12T07:53:26.340Z,21.20
2017-09-12T07:55:55.278Z,21.30
2017-09-12T07:58:24.525Z,21.30
2017-09-12T08:00:53.612Z,21.30
2017-09-12T08:03:23.470Z,21.10
2017-09-12T08:05:52.300Z,21.10
2017-09-12T08:08:21.180Z,21.30
2017-09-12T08:10:50.475Z,21.50
2017-09-12T08:13:20.076Z,21.60
2017-09-12T08:15:49.435Z,22.50
2017-09-12T08:18:18.777Z,24.00
2017-09-12T08:20:48.096Z,24.80
2017-09-12T08:23:17.377Z,25.60
2017-09-12T08:25:46.344Z,24.60
2017-09-12T08:28:15.797Z,24.10
2017-09-12T08:30:45.068Z,23.70
2017-09-12T08:33:14.292Z,22.90
2017-09-12T08:35:43.348Z,22.60
2017-09-12T08:38:13.185Z,22.40
2017-09-12T08:40:43.610Z,22.30
2017-09-12T08:43:13.846Z,22.10
2017-09-12T08:45:44.004Z,22.00
2017-09-12T08:48:14.220Z,22.00
2017-09-12T08:50:44.099Z,22.10
2017-09-12T08:53:13.504Z,22.10
2017-09-12T08:55:43.561Z,22.20
2017-09-12T08:58:14.458Z,22.40
2017-09-12T09:00:43.737Z,22.40
2017-09-12T09:03:14.347Z,22.40
2017-09-12T09:05:44.618Z,22.70
2017-09-12T09:08:14.845Z,22.80
2017-09-12T09:10:46.063Z,22.30
2017-09-12T09:13:17.643Z,22.20
2017-09-12T09:15:47.553Z,22.10
2017-09-12T09:18:17.929Z,21.80
2017-09-12T09:20:48.141Z,21.80
2017-09-12T09:23:17.756Z,21.80
2017-09-12T09:25:47.298Z,21.70
2017-09-12T09:28:16.332Z,21.50
2017-09-12T09:30:47.184Z,21.30
2017-09-12T09:33:23.027Z,21.30
2017-09-12T09:35:55.096Z,21.60
2017-09-12T09:38:24.436Z,21.60
2017-09-12T09:40:53.449Z,21.70
2017-09-12T09:43:23.284Z,21.80
2017-09-12T09:45:52.604Z,22.00
2017-09-12T09:48:22.173Z,21.80
2017-09-12T09:50:51.822Z,21.80
2017-09-12T09:53:21.645Z,21.80
2017-09-12T09:55:51.000Z,21.70
2017-09-12T09:58:20.961Z,21.60
2017-09-12T10:00:50.035Z,21.50
2017-09-12T10:03:19.960Z,21.40
2017-09-12T10:05:49.957Z,21.40
2017-09-12T10:08:19.284Z,21.30
2017-09-12T10:10:48.437Z,21.30
2017-09-12T10:13:17.852Z,21.20
2017-09-12T10:15:47.241Z,21.10
2017-09-12T10:18:17.331Z,21.20
2017-09-12T10:20:46.565Z,21.10
2017-09-12T10:23:16.149Z,21.10
2017-09-12T10:25:45.585Z,21.20
2017-09-12T10:28:16.320Z,21.10
2017-09-12T10:30:46.223Z,21.00
2017-09-12T10:33:16.904Z,21.00
2017-09-12T10:35:46.149Z,21.00
2017-09-12T10:38:15.562Z,21.00
2017-09-12T10:40:45.851Z,21.10
2017-09-12T10:43:15.176Z,21.20
2017-09-12T10:45:44.720Z,21.30
2017-09-12T10:48:14.097Z,21.40
2017-09-12T10:50:43.831Z,21.50
2017-09-12T10:53:14.200Z,21.70
2017-09-12T10:55:43.640Z,21.70
2017-09-12T10:58:13.130Z,21.70
2017-09-12T11:00:44.308Z,22.80
2017-09-12T11:03:13.684Z,22.80
2017-09-12T11:05:43.234Z,22.70
2017-09-12T11:08:12.901Z,22.60
2017-09-12T11:10:41.938Z,22.10
2017-09-12T11:13:12.327Z,22.20
2017-09-12T11:15:41.968Z,22.20
2017-09-12T11:18:11.680Z,22.30
2017-09-12T11:20:41.453Z,21.90
2017-09-12T11:23:10.641Z,21.90
2017-09-12T11:25:41.767Z,22.00
2017-09-12T11:28:11.304Z,21.90
2017-09-12T11:30:40.886Z,22.20
2017-09-12T11:33:11.971Z,22.20
2017-09-12T11:35:41.671Z,22.10
2017-09-12T11:38:13.245Z,22.20
2017-09-12T11:40:42.370Z,22.70
2017-09-12T11:43:11.524Z,22.70
2017-09-12T11:45:40.688Z,22.30
2017-09-12T11:48:09.820Z,22.30
2017-09-12T11:50:38.997Z,22.70
2017-09-12T11:53:08.198Z,23.70
2017-09-12T11:55:37.101Z,24.90
2017-09-12T11:58:07.737Z,24.70
2017-09-12T12:00:37.095Z,24.60
2017-09-12T12:03:06.085Z,24.40
2017-09-12T12:05:35.951Z,24.70
2017-09-12T12:08:06.226Z,24.80
2017-09-12T12:10:35.536Z,25.70
2017-09-12T12:13:04.927Z,26.00
2017-09-12T12:15:34.363Z,25.90
2017-09-12T12:18:03.578Z,25.20
2017-09-12T12:20:33.116Z,24.50
2017-09-12T12:23:02.362Z,24.00
2017-09-12T12:25:32.278Z,23.10
2017-09-12T12:28:02.275Z,23.10
2017-09-12T12:30:31.340Z,23.10
2017-09-12T12:33:01.609Z,23.00
2017-09-12T12:35:30.970Z,22.90
2017-09-12T12:38:01.137Z,22.50
2017-09-12T12:40:30.235Z,22.50
2017-09-12T12:42:59.569Z,22.60
2017-09-12T12:45:29.323Z,22.60
2017-09-12T12:47:59.006Z,22.40
2017-09-12T12:50:28.541Z,22.50
2017-09-12T12:52:57.557Z,22.60
2017-09-12T12:55:26.960Z,22.90
2017-09-12T12:57:56.876Z,23.30
2017-09-12T13:00:26.560Z,23.20
2017-09-12T13:02:55.475Z,23.10
2017-09-12T13:05:25.120Z,22.90
2017-09-12T13:07:55.916Z,23.10
2017-09-12T13:10:25.849Z,23.10
2017-09-12T13:12:54.653Z,22.90
2017-09-12T13:15:24.137Z,23.00
2017-09-12T13:17:53.749Z,22.80
2017-09-12T13:20:23.131Z,22.70
2017-09-12T13:22:51.925Z,22.40
2017-09-12T13:25:20.921Z,22.40
2017-09-12T13:27:50.047Z,22.30
2017-09-12T13:30:19.233Z,22.30
2017-09-12T13:32:48.237Z,22.40
2017-09-12T13:35:17.610Z,22.60
2017-09-12T13:37:47.934Z,22.90
2017-09-12T13:40:17.634Z,22.90
2017-09-12T13:42:47.020Z,22.90
2017-09-12T13:45:15.940Z,22.60
2017-09-12T13:47:45.444Z,22.50
2017-09-12T13:50:14.808Z,22.40
2017-09-12T13:52:43.909Z,22.70
2017-09-12T13:55:13.038Z,22.90
2017-09-12T13:57:42.110Z,23.20
2017-09-12T14:00:11.265Z,23.30
2017-09-12T14:02:46.978Z,23.20
2017-09-12T14:05:16.964Z,23.50
2017-09-12T14:07:46.894Z,23.70
2017-09-12T14:10:17.406Z,23.60
2017-09-12T14:12:48.180Z,23.20
2017-09-12T14:15:19.938Z,23.20
2017-09-12T14:17:52.033Z,23.20
2017-09-12T14:20:21.953Z,23.10
2017-09-12T14:22:51.217Z,23.10
2017-09-12T14:25:20.621Z,23.10
2017-09-12T14:27:49.711Z,23.10
2017-09-12T14:30:19.224Z,23.20
2017-09-12T14:32:48.432Z,22.90
2017-09-12T14:35:18.704Z,22.70
2017-09-12T14:37:47.609Z,22.50
2017-09-12T14:40:16.630Z,22.70
2017-09-12T14:42:45.626Z,22.70
2017-09-12T14:45:14.823Z,22.90
2017-09-12T14:47:43.792Z,22.70
2017-09-12T14:50:13.985Z,22.90
2017-09-12T14:52:43.651Z,23.10
2017-09-12T14:55:19.156Z,23.10
2017-09-12T14:57:48.284Z,23.10
2017-09-12T15:00:17.111Z,23.00
2017-09-12T15:02:47.197Z,22.80
2017-09-12T15:05:17.467Z,22.80
2017-09-12T15:07:47.639Z,22.90
2017-09-12T15:10:16.688Z,22.80
2017-09-12T15:12:46.069Z,22.80
2017-09-12T15:15:15.913Z,22.90
2017-09-12T15:17:45.134Z,22.60
2017-09-12T15:20:14.315Z,22.50
2017-09-12T15:22:43.656Z,22.50
2017-09-12T15:25:12.950Z,22.50
2017-09-12T15:27:43.185Z,22.50
2017-09-12T15:30:12.704Z,22.60
2017-09-12T15:32:42.246Z,22.40
2017-09-12T15:35:11.897Z,22.50
2017-09-12T15:37:41.754Z,22.30
2017-09-12T15:40:12.560Z,22.30
2017-09-12T15:42:41.638Z,22.30
2017-09-12T15:45:11.649Z,22.30
2017-09-12T15:47:41.682Z,22.60
2017-09-12T15:50:12.612Z,22.70
2017-09-12T15:52:42.489Z,22.70
2017-09-12T15:55:11.831Z,22.60
2017-09-12T15:57:41.716Z,22.40
2017-09-12T16:00:10.917Z,22.50
2017-09-12T16:02:40.197Z,22.40
2017-09-12T16:05:10.775Z,22.40
2017-09-12T16:07:40.782Z,22.30
2017-09-12T16:10:09.784Z,22.30
2017-09-12T16:12:39.263Z,22.40
2017-09-12T16:15:09.436Z,22.30
2017-09-12T16:17:39.376Z,22.30
2017-09-12T16:20:08.420Z,22.20
2017-09-12T16:22:37.515Z,22.20
2017-09-12T16:25:06.413Z,22.20
2017-09-12T16:27:35.703Z,22.30
2017-09-12T16:30:04.988Z,22.30
2017-09-12T16:32:34.285Z,22.30
2017-09-12T16:35:04.392Z,22.40
2017-09-12T16:37:33.583Z,22.40
2017-09-12T16:40:02.913Z,22.40
2017-09-12T16:42:33.355Z,22.30
2017-09-12T16:45:02.459Z,22.30
2017-09-12T16:47:32.569Z,22.20
2017-09-12T16:50:03.370Z,22.30
2017-09-12T16:52:32.780Z,22.30
2017-09-12T16:55:03.140Z,22.30
2017-09-12T16:57:34.821Z,22.30
2017-09-12T17:00:05.587Z,22.40
2017-09-12T17:02:35.018Z,22.30
2017-09-12T17:05:06.117Z,22.30
2017-09-12T17:07:35.579Z,22.20
2017-09-12T17:10:05.337Z,22.40
2017-09-12T17:12:37.536Z,22.40
2017-09-12T17:15:09.232Z,22.40
2017-09-12T17:17:40.139Z,22.40
2017-09-12T17:20:10.810Z,22.40
2017-09-12T17:22:41.506Z,22.40
2017-09-12T17:25:12.382Z,22.50
2017-09-12T17:27:43.238Z,22.50
2017-09-12T17:30:14.172Z,22.50
2017-09-12T17:32:46.137Z,22.60
2017-09-12T17:35:16.795Z,22.60
2017-09-12T17:37:48.438Z,22.60
2017-09-12T17:40:21.464Z,22.60
2017-09-12T17:42:51.999Z,22.60
2017-09-12T17:45:22.170Z,22.50
2017-09-12T17:47:52.592Z,22.50
2017-09-12T17:50:22.111Z,22.40
2017-09-12T17:52:52.355Z,22.40
2017-09-12T17:55:26.708Z,22.40
2017-09-12T17:57:57.231Z,22.30
2017-09-12T18:00:26.892Z,22.20
2017-09-12T18:02:56.804Z,22.10
2017-09-12T18:05:26.555Z,22.10
2017-09-12T18:07:57.058Z,22.10
2017-09-12T18:10:26.808Z,22.20
2017-09-12T18:12:56.860Z,22.20
2017-09-12T18:15:27.807Z,22.20
2017-09-12T18:17:57.984Z,22.10
2017-09-12T18:20:28.264Z,22.10
2017-09-12T18:23:08.497Z,22.10
2017-09-12T18:25:49.299Z,22.10
2017-09-12T18:28:22.510Z,22.10
2017-09-12T18:30:52.252Z,22.10
2017-09-12T18:33:22.590Z,22.10
2017-09-12T18:35:51.971Z,22.10
2017-09-12T18:38:21.853Z,22.10
2017-09-12T18:40:52.184Z,22.10
2017-09-12T18:43:22.337Z,22.10
2017-09-12T18:45:52.083Z,22.10
2017-09-12T18:48:21.835Z,22.10
2017-09-12T18:50:53.154Z,22.10
2017-09-12T18:53:24.188Z,22.10
2017-09-12T18:55:57.735Z,22.20
2017-09-12T18:58:27.380Z,22.20
2017-09-12T19:00:59.223Z,22.10
2017-09-12T19:03:28.757Z,22.10
2017-09-12T19:05:58.964Z,22.10
2017-09-12T19:08:31.776Z,22.10
2017-09-12T19:11:04.024Z,22.20
2017-09-12T19:13:34.649Z,22.20
2017-09-12T19:16:04.640Z,22.20
2017-09-12T19:18:34.843Z,22.30
2017-09-12T19:21:15.200Z,22.20
2017-09-12T19:23:46.877Z,22.10
2017-09-12T19:26:20.361Z,22.20
2017-09-12T19:28:57.730Z,22.10
2017-09-12T19:31:31.047Z,22.10
2017-09-12T19:34:05.538Z,22.10
2017-09-12T19:36:39.669Z,22.20
2017-09-12T19:39:12.156Z,22.20
2017-09-12T19:41:44.863Z,22.20
2017-09-12T19:44:16.917Z,22.20
2017-09-12T19:46:46.900Z,22.20
2017-09-12T19:49:17.697Z,22.30
2017-09-12T19:51:49.165Z,22.30
2017-09-12T19:54:20.077Z,22.30
2017-09-12T19:56:50.093Z,22.30
2017-09-12T19:59:20.190Z,22.30
2017-09-12T20:01:50.091Z,22.20
2017-09-12T20:04:20.751Z,22.20
2017-09-12T20:06:50.870Z,22.10
2017-09-12T20:09:21.674Z,22.20
2017-09-12T20:11:54.357Z,22.20
2017-09-12T20:14:25.816Z,22.20
2017-09-12T20:16:56.486Z,22.20
2017-09-12T20:19:26.678Z,22.10
2017-09-12T20:21:57.924Z,22.10
2017-09-12T20:24:30.323Z,22.10
2017-09-12T20:27:17.665Z,22.10
2017-09-12T20:29:52.072Z,22.00
2017-09-12T20:32:23.130Z,22.00
2017-09-12T20:34:59.534Z,22.00
2017-09-12T20:37:31.328Z,22.00
2017-09-12T20:40:16.309Z,22.00
2017-09-12T20:42:54.692Z,22.00
2017-09-12T20:45:26.903Z,21.90
2017-09-12T20:47:56.342Z,21.90
2017-09-12T20:50:26.208Z,21.90
2017-09-12T20:52:56.604Z,22.00
2017-09-12T20:55:27.714Z,22.00
2017-09-12T20:57:59.037Z,22.00
2017-09-12T21:00:28.297Z,22.10
2017-09-12T21:03:05.722Z,22.00
2017-09-12T21:05:37.966Z,22.00
2017-09-12T21:08:08.079Z,22.10
2017-09-12T21:10:39.454Z,22.20
2017-09-12T21:13:12.349Z,22.20
2017-09-12T21:15:57.017Z,22.10
2017-09-12T21:18:38.292Z,22.10
2017-09-12T21:21:20.342Z,22.00
2017-09-12T21:24:08.130Z,22.10
2017-09-12T21:26:46.885Z,22.00
2017-09-12T21:29:27.711Z,22.10
2017-09-12T21:32:01.211Z,22.10
2017-09-12T21:34:34.318Z,22.10
2017-09-12T21:37:10.105Z,22.00
2017-09-12T21:39:41.881Z,22.00
2017-09-12T21:42:13.464Z,22.00
2017-09-12T21:44:49.494Z,21.90
2017-09-12T21:47:22.922Z,21.90
2017-09-12T21:50:05.733Z,21.90
2017-09-12T21:55:27.219Z,22.00
2017-09-12T21:57:57.709Z,22.00
2017-09-12T22:00:30.187Z,22.10
2017-09-12T22:03:00.331Z,22.00
2017-09-12T22:05:32.052Z,22.00
2017-09-12T22:08:01.935Z,22.00
2017-09-12T22:10:31.337Z,22.10
2017-09-12T22:13:00.674Z,22.10
2017-09-12T22:15:30.138Z,22.10
2017-09-12T22:18:00.080Z,22.00
2017-09-12T22:20:29.864Z,22.00
2017-09-12T22:22:59.952Z,22.00
2017-09-12T22:25:30.033Z,21.90
2017-09-12T22:27:59.384Z,22.00
2017-09-12T22:30:28.752Z,22.00
2017-09-12T22:32:58.159Z,21.90
2017-09-12T22:35:27.847Z,22.00
2017-09-12T22:37:57.763Z,22.00
2017-09-12T22:40:28.372Z,22.00
2017-09-12T22:42:57.862Z,22.00
2017-09-12T22:45:27.637Z,22.00
2017-09-12T22:47:57.821Z,22.10
2017-09-12T22:50:27.130Z,22.00
2017-09-12T22:52:57.040Z,22.10
2017-09-12T22:55:26.143Z,22.10
2017-09-12T22:57:56.297Z,22.20
2017-09-12T23:00:25.865Z,22.10
2017-09-12T23:02:56.499Z,21.90
2017-09-12T23:05:26.170Z,22.00
2017-09-12T23:07:55.920Z,21.90
2017-09-12T23:10:26.057Z,21.80
2017-09-12T23:12:55.955Z,21.80
2017-09-12T23:15:25.390Z,21.80
2017-09-12T23:17:54.897Z,21.80
2017-09-12T23:20:23.854Z,21.80
2017-09-12T23:22:52.941Z,21.90
2017-09-12T23:25:22.308Z,21.90
2017-09-12T23:27:51.767Z,21.90
2017-09-12T23:30:22.348Z,21.90
2017-09-12T23:32:51.268Z,21.90
2017-09-12T23:35:20.982Z,21.90
2017-09-12T23:37:49.870Z,21.90
2017-09-12T23:40:18.771Z,21.90
2017-09-12T23:42:47.651Z,21.80
2017-09-12T23:45:16.952Z,21.80
2017-09-12T23:47:46.869Z,21.90
2017-09-12T23:50:16.386Z,21.80
2017-09-12T23:52:45.264Z,22.00
2017-09-12T23:55:14.360Z,22.00
2017-09-12T23:57:43.249Z,21.90
